createdAt,value
2018-06-22T00:00:51.866Z,24.50
2018-06-22T00:03:18.701Z,24.50
2018-06-22T00:05:45.591Z,24.50
2018-06-22T00:08:12.429Z,24.50
2018-06-22T00:10:39.245Z,24.50
2018-06-22T00:13:06.122Z,24.50
2018-06-22T00:15:32.934Z,24.50
2018-06-22T00:18:00.438Z,24.50
2018-06-22T00:20:27.315Z,24.50
2018-06-22T00:22:54.116Z,24.50
2018-06-22T00:25:21.272Z,24.50
2018-06-22T00:27:48.152Z,24.50
2018-06-22T00:30:14.924Z,24.50
2018-06-22T00:32:41.776Z,24.50
2018-06-22T00:35:08.756Z,24.50
2018-06-22T00:37:35.585Z,24.50
2018-06-22T00:40:02.421Z,24.50
2018-06-22T00:42:29.233Z,24.50
2018-06-22T00:44:56.150Z,24.50
2018-06-22T00:47:22.968Z,24.50
2018-06-22T00:49:49.809Z,24.50
2018-06-22T00:52:16.657Z,24.50
2018-06-22T00:54:43.648Z,24.50
2018-06-22T00:57:10.502Z,24.50
2018-06-22T00:59:37.335Z,24.50
2018-06-22T01:02:04.205Z,24.50
2018-06-22T01:04:31.218Z,24.50
2018-06-22T01:06:58.068Z,24.50
2018-06-22T01:09:24.877Z,24.50
2018-06-22T01:11:51.761Z,24.40
2018-06-22T01:14:18.805Z,24.40
2018-06-22T01:16:45.634Z,24.40
2018-06-22T01:19:12.475Z,24.40
2018-06-22T01:21:39.293Z,24.40
2018-06-22T01:24:06.193Z,24.40
2018-06-22T01:26:33.033Z,24.50
2018-06-22T01:28:59.894Z,24.40
2018-06-22T01:31:26.771Z,24.40
2018-06-22T01:33:53.759Z,24.40
2018-06-22T01:36:20.599Z,24.40
2018-06-22T01:38:47.496Z,24.40
2018-06-22T01:41:14.306Z,24.40
2018-06-22T01:43:41.162Z,24.40
2018-06-22T01:48:35.114Z,24.40
2018-06-22T01:51:01.970Z,24.40
2018-06-22T01:53:28.803Z,24.40
2018-06-22T01:55:55.689Z,24.40
2018-06-22T01:58:22.525Z,24.40
2018-06-22T02:00:49.383Z,24.40
2018-06-22T02:03:16.206Z,24.40
2018-06-22T02:05:43.130Z,24.40
2018-06-22T02:08:09.969Z,24.40
2018-06-22T02:10:36.837Z,24.40
2018-06-22T02:13:03.640Z,24.40
2018-06-22T02:15:30.528Z,24.30
2018-06-22T02:17:57.397Z,24.40
2018-06-22T02:20:24.240Z,24.40
2018-06-22T02:22:51.128Z,24.40
2018-06-22T02:27:45.148Z,24.30
2018-06-22T02:30:12.041Z,24.30
2018-06-22T02:32:38.882Z,24.30
2018-06-22T02:35:05.893Z,24.30
2018-06-22T02:37:32.767Z,24.30
2018-06-22T02:39:59.628Z,24.30
2018-06-22T02:42:26.466Z,24.30
2018-06-22T02:44:53.418Z,24.30
2018-06-22T02:47:20.252Z,24.30
2018-06-22T02:49:47.085Z,24.30
2018-06-22T02:52:13.938Z,24.30
2018-06-22T02:54:40.834Z,24.30
2018-06-22T02:57:07.674Z,24.30
2018-06-22T02:59:34.518Z,24.20
2018-06-22T03:02:01.352Z,24.30
2018-06-22T03:04:28.424Z,24.30
2018-06-22T03:06:55.259Z,24.30
2018-06-22T03:09:22.081Z,24.30
2018-06-22T03:11:48.924Z,24.20
2018-06-22T03:14:16.024Z,24.30
2018-06-22T03:16:42.863Z,24.20
2018-06-22T03:19:09.657Z,24.20
2018-06-22T03:21:36.477Z,24.20
2018-06-22T03:24:03.322Z,24.20
2018-06-22T03:26:30.138Z,24.20
2018-06-22T03:28:56.985Z,24.20
2018-06-22T03:31:23.829Z,24.20
2018-06-22T03:33:50.686Z,24.20
2018-06-22T03:36:17.517Z,24.20
2018-06-22T03:38:44.399Z,24.20
2018-06-22T03:41:11.191Z,24.20
2018-06-22T03:43:38.044Z,24.20
2018-06-22T03:46:04.927Z,24.20
2018-06-22T03:48:31.794Z,24.20
2018-06-22T03:50:58.633Z,24.20
2018-06-22T03:53:25.467Z,24.20
2018-06-22T03:55:52.328Z,24.20
2018-06-22T03:58:19.180Z,24.30
2018-06-22T04:00:45.994Z,24.30
2018-06-22T04:03:12.838Z,24.30
2018-06-22T04:05:39.876Z,24.20
2018-06-22T04:08:06.761Z,24.20
2018-06-22T04:10:33.598Z,24.20
2018-06-22T04:13:00.433Z,24.20
2018-06-22T04:15:27.512Z,24.20
2018-06-22T04:17:54.330Z,24.20
2018-06-22T04:20:21.352Z,24.20
2018-06-22T04:22:48.150Z,24.20
2018-06-22T04:25:15.216Z,24.30
2018-06-22T04:27:42.090Z,24.40
2018-06-22T04:30:08.927Z,24.30
2018-06-22T04:32:35.856Z,24.30
2018-06-22T04:35:02.782Z,24.30
2018-06-22T04:37:29.616Z,24.40
2018-06-22T04:39:56.472Z,24.40
2018-06-22T04:42:23.327Z,24.40
2018-06-22T04:44:50.184Z,24.40
2018-06-22T04:47:17.677Z,24.40
2018-06-22T04:49:44.641Z,24.40
2018-06-22T04:52:11.470Z,24.40
2018-06-22T04:54:38.346Z,24.40
2018-06-22T04:57:05.166Z,24.40
2018-06-22T04:59:31.997Z,24.40
2018-06-22T05:01:58.818Z,24.30
2018-06-22T05:04:25.715Z,24.40
2018-06-22T05:06:52.541Z,24.40
2018-06-22T05:09:19.401Z,24.40
2018-06-22T05:11:46.214Z,24.30
2018-06-22T05:14:13.097Z,24.20
2018-06-22T05:16:39.921Z,24.20
2018-06-22T05:19:06.744Z,24.20
2018-06-22T05:21:33.580Z,24.10
2018-06-22T05:24:00.466Z,24.20
2018-06-22T05:26:27.303Z,24.10
2018-06-22T05:28:54.139Z,24.20
2018-06-22T05:31:20.983Z,24.10
2018-06-22T05:33:47.833Z,24.20
2018-06-22T05:36:14.663Z,24.10
2018-06-22T05:38:41.481Z,24.10
2018-06-22T05:41:08.312Z,24.10
2018-06-22T05:43:35.198Z,24.10
2018-06-22T05:46:02.034Z,24.00
2018-06-22T05:48:28.960Z,24.10
2018-06-22T05:50:55.848Z,24.00
2018-06-22T05:53:22.652Z,24.00
2018-06-22T05:55:49.473Z,24.00
2018-06-22T05:58:16.297Z,24.10
2018-06-22T06:00:43.131Z,24.00
2018-06-22T06:03:09.943Z,24.00
2018-06-22T06:05:36.820Z,23.90
2018-06-22T06:08:03.633Z,23.90
2018-06-22T06:10:30.458Z,23.80
2018-06-22T06:12:57.298Z,23.90
2018-06-22T06:15:24.153Z,23.90
2018-06-22T06:17:50.975Z,23.70
2018-06-22T06:20:17.834Z,23.20
2018-06-22T06:22:44.677Z,23.30
2018-06-22T06:25:12.093Z,23.50
2018-06-22T06:27:38.928Z,23.60
2018-06-22T06:30:06.179Z,23.60
2018-06-22T06:32:33.137Z,23.40
2018-06-22T06:35:00.048Z,22.90
2018-06-22T06:37:26.872Z,22.60
2018-06-22T06:39:53.703Z,22.30
2018-06-22T06:42:21.171Z,21.90
2018-06-22T06:44:48.098Z,22.00
2018-06-22T06:47:16.241Z,21.90
2018-06-22T06:49:43.120Z,22.10
2018-06-22T06:52:10.635Z,22.10
2018-06-22T06:54:37.714Z,21.90
2018-06-22T06:57:04.618Z,22.40
2018-06-22T06:59:31.487Z,22.90
2018-06-22T07:01:58.299Z,23.10
2018-06-22T07:04:25.263Z,23.20
2018-06-22T07:06:52.158Z,23.30
2018-06-22T07:09:18.975Z,23.30
2018-06-22T07:11:45.845Z,23.30
2018-06-22T07:14:12.846Z,23.40
2018-06-22T07:16:39.692Z,23.10
2018-06-22T07:19:06.588Z,23.10
2018-06-22T07:21:33.453Z,22.80
2018-06-22T07:24:00.463Z,23.00
2018-06-22T07:26:27.306Z,22.80
2018-06-22T07:28:54.357Z,22.70
2018-06-22T07:31:21.215Z,22.70
2018-06-22T07:33:48.206Z,22.70
2018-06-22T07:36:15.054Z,22.60
2018-06-22T07:38:42.083Z,22.70
2018-06-22T07:41:08.958Z,22.50
2018-06-22T07:43:36.086Z,22.20
2018-06-22T07:46:02.920Z,22.40
2018-06-22T07:48:29.773Z,22.70
2018-06-22T07:50:56.655Z,23.00
2018-06-22T07:53:23.562Z,22.70
2018-06-22T07:55:50.458Z,22.90
2018-06-22T07:58:17.282Z,22.90
2018-06-22T08:00:44.106Z,22.90
2018-06-22T08:03:10.933Z,22.90
2018-06-22T08:05:37.920Z,22.80
2018-06-22T08:08:04.746Z,23.00
2018-06-22T08:10:31.579Z,23.10
2018-06-22T08:12:58.399Z,23.10
2018-06-22T08:15:25.308Z,23.10
2018-06-22T08:17:52.136Z,23.30
2018-06-22T08:20:19.436Z,23.30
2018-06-22T08:22:46.254Z,23.50
2018-06-22T08:25:13.273Z,23.50
2018-06-22T08:27:40.094Z,23.60
2018-06-22T08:30:06.923Z,23.70
2018-06-22T08:32:33.758Z,23.70
2018-06-22T08:35:00.705Z,23.60
2018-06-22T08:37:27.469Z,23.70
2018-06-22T08:39:54.870Z,23.60
2018-06-22T08:42:21.704Z,23.40
2018-06-22T08:44:48.631Z,23.30
2018-06-22T08:47:16.390Z,23.40
2018-06-22T08:49:43.418Z,23.50
2018-06-22T08:52:10.253Z,23.50
2018-06-22T08:54:37.239Z,23.60
2018-06-22T08:57:04.070Z,23.50
2018-06-22T08:59:30.918Z,23.60
2018-06-22T09:01:57.730Z,23.60
2018-06-22T09:04:24.647Z,23.60
2018-06-22T09:06:51.494Z,23.60
2018-06-22T09:09:18.304Z,23.60
2018-06-22T09:11:45.124Z,23.60
2018-06-22T09:14:11.997Z,23.60
2018-06-22T09:16:38.800Z,23.70
2018-06-22T09:19:05.618Z,23.70
2018-06-22T09:21:32.512Z,23.60
2018-06-22T09:23:59.362Z,23.60
2018-06-22T09:26:26.177Z,23.60
2018-06-22T09:28:53.009Z,23.60
2018-06-22T09:31:19.863Z,23.60
2018-06-22T09:33:46.751Z,23.60
2018-06-22T09:36:13.576Z,23.60
2018-06-22T09:38:40.390Z,23.60
2018-06-22T09:41:07.216Z,23.60
2018-06-22T09:43:34.066Z,23.60
2018-06-22T09:46:00.879Z,23.70
2018-06-22T09:48:27.784Z,23.60
2018-06-22T09:50:54.608Z,23.60
2018-06-22T09:53:22.122Z,23.50
2018-06-22T09:55:48.922Z,23.50
2018-06-22T09:58:15.750Z,23.50
2018-06-22T10:00:42.575Z,23.60
2018-06-22T10:03:09.398Z,23.60
2018-06-22T10:05:36.301Z,23.60
2018-06-22T10:08:03.115Z,23.60
2018-06-22T10:10:29.951Z,23.60
2018-06-22T10:12:56.828Z,23.60
2018-06-22T10:15:23.686Z,23.60
2018-06-22T10:17:50.506Z,23.70
2018-06-22T10:20:17.335Z,23.70
2018-06-22T10:22:44.164Z,23.70
2018-06-22T10:25:11.046Z,23.70
2018-06-22T10:27:37.901Z,23.70
2018-06-22T10:30:05.796Z,23.70
2018-06-22T10:32:32.754Z,23.70
2018-06-22T10:34:59.641Z,23.70
2018-06-22T10:37:26.533Z,23.70
2018-06-22T10:39:53.322Z,23.70
2018-06-22T10:42:20.152Z,23.70
2018-06-22T10:44:47.055Z,23.80
2018-06-22T10:47:14.612Z,23.80
2018-06-22T10:49:41.482Z,23.80
2018-06-22T10:52:08.364Z,23.80
2018-06-22T10:54:35.206Z,23.80
2018-06-22T10:57:02.032Z,23.80
2018-06-22T10:59:28.842Z,23.80
2018-06-22T11:01:55.676Z,23.70
2018-06-22T11:04:22.576Z,23.70
2018-06-22T11:06:49.398Z,23.70
2018-06-22T11:09:16.227Z,23.80
2018-06-22T11:11:43.062Z,23.70
2018-06-22T11:14:09.941Z,23.70
2018-06-22T11:16:36.772Z,23.80
2018-06-22T11:19:03.590Z,23.80
2018-06-22T11:21:30.422Z,23.80
2018-06-22T11:23:57.325Z,23.80
2018-06-22T11:26:24.160Z,23.80
2018-06-22T11:28:50.999Z,23.80
2018-06-22T11:31:17.825Z,23.80
2018-06-22T11:33:44.666Z,23.80
2018-06-22T11:36:11.549Z,23.80
2018-06-22T11:38:38.384Z,23.80
2018-06-22T11:41:05.209Z,23.80
2018-06-22T11:43:32.030Z,23.80
2018-06-22T11:45:58.883Z,23.80
2018-06-22T11:48:25.695Z,23.80
2018-06-22T11:50:52.532Z,23.90
2018-06-22T11:53:19.372Z,23.80
2018-06-22T11:55:46.276Z,23.80
2018-06-22T11:58:13.111Z,23.80
2018-06-22T12:00:39.936Z,23.80
2018-06-22T12:03:06.759Z,23.80
2018-06-22T12:05:33.646Z,23.80
2018-06-22T12:08:00.460Z,23.80
2018-06-22T12:10:27.282Z,23.80
2018-06-22T12:12:54.185Z,23.80
2018-06-22T12:15:21.010Z,23.80
2018-06-22T12:17:47.831Z,23.70
2018-06-22T12:20:14.726Z,23.80
2018-06-22T12:22:41.545Z,23.80
2018-06-22T12:25:08.400Z,23.80
2018-06-22T12:27:35.305Z,23.80
2018-06-22T12:30:02.069Z,23.80
2018-06-22T12:32:28.905Z,23.80
2018-06-22T12:34:55.757Z,23.80
2018-06-22T12:37:22.574Z,23.80
2018-06-22T12:39:49.391Z,23.80
2018-06-22T12:42:16.232Z,23.70
2018-06-22T12:44:43.131Z,23.70
2018-06-22T12:47:09.960Z,23.70
2018-06-22T12:49:36.796Z,23.70
2018-06-22T12:52:03.627Z,23.70
2018-06-22T12:54:30.501Z,23.70
2018-06-22T12:56:57.322Z,23.70
2018-06-22T12:59:24.165Z,23.70
2018-06-22T13:01:50.975Z,23.70
2018-06-22T13:04:17.867Z,23.70
2018-06-22T13:06:44.682Z,23.70
2018-06-22T13:09:12.877Z,23.70
2018-06-22T13:11:39.642Z,23.70
2018-06-22T13:14:06.477Z,23.70
2018-06-22T13:16:33.295Z,23.70
2018-06-22T13:19:00.124Z,23.80
2018-06-22T13:21:26.967Z,23.80
2018-06-22T13:23:53.881Z,23.80
2018-06-22T13:26:20.682Z,23.70
2018-06-22T13:28:47.496Z,23.70
2018-06-22T13:31:14.318Z,23.70
2018-06-22T13:33:41.152Z,23.80
2018-06-22T13:36:07.975Z,23.70
2018-06-22T13:38:34.828Z,23.80
2018-06-22T13:41:01.642Z,23.80
2018-06-22T13:43:28.478Z,23.80
2018-06-22T13:45:55.300Z,23.80
2018-06-22T13:48:22.123Z,23.80
2018-06-22T13:50:48.942Z,23.70
2018-06-22T13:53:15.770Z,23.70
2018-06-22T13:55:42.605Z,23.70
2018-06-22T13:58:09.425Z,23.70
2018-06-22T14:00:36.258Z,23.70
2018-06-22T14:03:03.142Z,23.70
2018-06-22T14:05:29.975Z,23.70
2018-06-22T14:07:56.801Z,23.70
2018-06-22T14:10:24.447Z,23.70
2018-06-22T14:12:51.282Z,23.70
2018-06-22T14:15:19.432Z,23.70
2018-06-22T14:17:46.402Z,23.70
2018-06-22T14:20:13.255Z,23.70
2018-06-22T14:22:40.067Z,23.70
2018-06-22T14:25:06.967Z,23.70
2018-06-22T14:27:33.775Z,23.70
2018-06-22T14:30:00.616Z,23.70
2018-06-22T14:32:27.952Z,23.70
2018-06-22T14:34:54.989Z,23.70
2018-06-22T14:37:21.838Z,23.70
2018-06-22T14:39:48.641Z,23.70
2018-06-22T14:42:15.470Z,23.70
2018-06-22T14:44:42.363Z,23.70
2018-06-22T14:47:09.165Z,23.70
2018-06-22T14:49:36.011Z,23.70
2018-06-22T14:52:02.832Z,23.70
2018-06-22T14:54:29.699Z,23.70
2018-06-22T14:56:56.505Z,23.80
2018-06-22T14:59:23.330Z,23.80
2018-06-22T15:01:50.155Z,23.80
2018-06-22T15:04:17.084Z,23.80
2018-06-22T15:06:43.936Z,23.80
2018-06-22T15:09:10.775Z,23.80
2018-06-22T15:11:37.629Z,23.80
2018-06-22T15:14:04.647Z,23.80
2018-06-22T15:16:31.468Z,23.80
2018-06-22T15:18:58.283Z,23.90
2018-06-22T15:21:25.181Z,23.80
2018-06-22T15:23:52.007Z,23.90
2018-06-22T15:26:18.839Z,23.90
2018-06-22T15:28:45.662Z,23.90
2018-06-22T15:31:12.487Z,23.90
2018-06-22T15:33:39.311Z,23.90
2018-06-22T15:36:06.131Z,23.90
2018-06-22T15:38:32.947Z,23.90
2018-06-22T15:40:59.790Z,23.90
2018-06-22T15:43:26.761Z,24.00
2018-06-22T15:45:53.585Z,24.00
2018-06-22T15:48:20.408Z,24.00
2018-06-22T15:50:47.260Z,24.00
2018-06-22T15:53:14.094Z,24.00
2018-06-22T15:55:40.969Z,24.00
2018-06-22T15:58:07.884Z,24.00
2018-06-22T16:00:34.678Z,24.00
2018-06-22T16:03:01.499Z,24.00
2018-06-22T16:05:28.737Z,24.00
2018-06-22T16:07:55.546Z,24.00
2018-06-22T16:10:22.371Z,24.00
2018-06-22T16:12:49.196Z,24.00
2018-06-22T16:15:16.125Z,24.10
2018-06-22T16:17:42.957Z,24.10
2018-06-22T16:20:10.049Z,24.10
2018-06-22T16:22:37.042Z,24.00
2018-06-22T16:25:03.911Z,24.00
2018-06-22T16:27:30.728Z,24.00
2018-06-22T16:29:57.595Z,24.00
2018-06-22T16:32:25.116Z,24.00
2018-06-22T16:34:52.102Z,24.00
2018-06-22T16:37:18.936Z,24.00
2018-06-22T16:39:45.766Z,24.00
2018-06-22T16:42:12.588Z,24.00
2018-06-22T16:44:39.589Z,24.00
2018-06-22T16:47:06.381Z,24.10
2018-06-22T16:49:33.214Z,24.10
2018-06-22T16:52:00.034Z,24.10
2018-06-22T16:54:27.057Z,24.00
2018-06-22T16:56:53.884Z,24.00
2018-06-22T16:59:20.707Z,24.00
2018-06-22T17:01:47.529Z,24.00
2018-06-22T17:04:14.527Z,24.00
2018-06-22T17:06:41.349Z,24.00
2018-06-22T17:09:08.172Z,24.00
2018-06-22T17:11:35.053Z,24.00
2018-06-22T17:14:01.920Z,24.00
2018-06-22T17:16:28.754Z,24.00
2018-06-22T17:18:55.574Z,24.00
2018-06-22T17:21:22.420Z,24.00
2018-06-22T17:23:49.259Z,23.90
2018-06-22T17:26:16.109Z,23.80
2018-06-22T17:28:42.926Z,23.70
2018-06-22T17:31:09.766Z,23.60
2018-06-22T17:33:36.590Z,23.50
2018-06-22T17:36:03.420Z,23.50
2018-06-22T17:38:30.265Z,23.40
2018-06-22T17:40:57.176Z,23.40
2018-06-22T17:43:23.998Z,23.40
2018-06-22T17:45:50.819Z,23.30
2018-06-22T17:48:17.654Z,23.30
2018-06-22T17:50:44.968Z,23.20
2018-06-22T17:53:11.791Z,23.20
2018-06-22T17:55:39.283Z,23.20
2018-06-22T17:58:06.081Z,23.20
2018-06-22T18:00:32.902Z,23.20
2018-06-22T18:02:59.725Z,23.10
2018-06-22T18:05:26.724Z,23.10
2018-06-22T18:07:53.622Z,23.10
2018-06-22T18:10:20.446Z,23.20
2018-06-22T18:12:47.338Z,23.20
2018-06-22T18:15:14.197Z,23.10
2018-06-22T18:17:41.014Z,23.30
2018-06-22T18:20:07.908Z,23.50
2018-06-22T18:22:34.678Z,23.70
2018-06-22T18:25:01.585Z,23.80
2018-06-22T18:27:28.488Z,23.80
2018-06-22T18:29:55.253Z,23.90
2018-06-22T18:32:22.546Z,23.90
2018-06-22T18:34:49.550Z,24.00
2018-06-22T18:37:16.443Z,24.00
2018-06-22T18:39:43.261Z,24.00
2018-06-22T18:42:10.097Z,24.00
2018-06-22T18:44:36.917Z,24.00
2018-06-22T18:47:03.817Z,24.00
2018-06-22T18:49:30.582Z,24.00
2018-06-22T18:51:57.391Z,24.10
2018-06-22T18:54:24.329Z,24.10
2018-06-22T18:56:51.313Z,24.10
2018-06-22T18:59:17.995Z,24.10
2018-06-22T19:01:44.804Z,24.10
2018-06-22T19:04:11.663Z,24.10
2018-06-22T19:06:38.482Z,24.10
2018-06-22T19:09:05.344Z,24.10
2018-06-22T19:11:32.163Z,24.10
2018-06-22T19:13:59.038Z,24.10
2018-06-22T19:16:25.929Z,24.10
2018-06-22T19:18:52.740Z,24.10
2018-06-22T19:21:19.578Z,24.10
2018-06-22T19:23:46.620Z,24.10
2018-06-22T19:26:13.466Z,24.10
2018-06-22T19:28:40.334Z,24.10
2018-06-22T19:31:08.134Z,24.10
2018-06-22T19:33:34.951Z,24.10
2018-06-22T19:36:01.799Z,24.10
2018-06-22T19:38:28.696Z,24.10
2018-06-22T19:40:55.498Z,24.20
2018-06-22T19:43:22.281Z,24.10
2018-06-22T19:45:49.112Z,24.10
2018-06-22T19:48:15.988Z,24.20
2018-06-22T19:50:43.160Z,24.10
2018-06-22T19:53:09.967Z,24.10
2018-06-22T19:55:36.796Z,24.20
2018-06-22T19:58:03.613Z,24.20
2018-06-22T20:00:30.454Z,24.20
2018-06-22T20:02:57.275Z,24.20
2018-06-22T20:05:24.172Z,24.20
2018-06-22T20:07:51.006Z,24.20
2018-06-22T20:10:19.772Z,24.20
2018-06-22T20:12:46.712Z,24.20
2018-06-22T20:15:13.591Z,24.20
2018-06-22T20:17:40.453Z,24.20
2018-06-22T20:20:07.306Z,24.20
2018-06-22T20:25:18.184Z,24.20
2018-06-22T20:27:44.992Z,24.20
2018-06-22T20:30:11.810Z,24.20
2018-06-22T20:32:38.668Z,24.20
2018-06-22T20:35:05.578Z,24.20
2018-06-22T20:37:32.393Z,24.20
2018-06-22T20:39:59.191Z,24.20
2018-06-22T20:42:26.044Z,24.20
2018-06-22T20:44:52.922Z,24.20
2018-06-22T20:47:20.243Z,24.20
2018-06-22T20:49:47.054Z,24.20
2018-06-22T20:52:13.890Z,24.20
2018-06-22T20:54:40.890Z,24.20
2018-06-22T20:57:07.747Z,24.20
2018-06-22T20:59:34.566Z,24.20
2018-06-22T21:02:01.415Z,24.30
2018-06-22T21:04:28.266Z,24.20
2018-06-22T21:06:55.077Z,24.20
2018-06-22T21:09:21.918Z,24.20
2018-06-22T21:11:48.743Z,24.20
2018-06-22T21:14:15.645Z,24.20
2018-06-22T21:16:42.465Z,24.20
2018-06-22T21:19:09.295Z,24.20
2018-06-22T21:21:36.119Z,24.20
2018-06-22T21:24:03.014Z,24.10
2018-06-22T21:26:29.989Z,24.20
2018-06-22T21:28:56.798Z,24.10
2018-06-22T21:31:23.624Z,24.10
2018-06-22T21:33:50.586Z,24.10
2018-06-22T21:36:17.414Z,24.00
2018-06-22T21:38:44.240Z,24.00
2018-06-22T21:41:11.057Z,24.00
2018-06-22T21:43:37.989Z,24.00
2018-06-22T21:46:04.922Z,24.00
2018-06-22T21:48:31.744Z,24.00
2018-06-22T21:50:58.569Z,24.00
2018-06-22T21:53:25.402Z,24.00
2018-06-22T21:55:52.379Z,24.00
2018-06-22T21:58:19.206Z,24.00
2018-06-22T22:00:46.038Z,24.00
2018-06-22T22:03:12.846Z,23.90
2018-06-22T22:05:39.749Z,24.00
2018-06-22T22:08:06.573Z,23.90
2018-06-22T22:10:33.889Z,24.00
2018-06-22T22:13:00.695Z,23.90
2018-06-22T22:15:27.525Z,23.90
2018-06-22T22:17:54.362Z,23.90
2018-06-22T22:20:21.195Z,23.90
2018-06-22T22:22:48.031Z,23.90
2018-06-22T22:25:14.905Z,23.90
2018-06-22T22:27:41.728Z,23.90
2018-06-22T22:30:09.015Z,23.90
2018-06-22T22:32:35.826Z,23.90
2018-06-22T22:35:02.681Z,23.90
2018-06-22T22:37:29.514Z,23.90
2018-06-22T22:39:56.339Z,23.90
2018-06-22T22:42:23.165Z,23.90
2018-06-22T22:44:50.057Z,23.80
2018-06-22T22:47:16.886Z,23.90
2018-06-22T22:49:43.827Z,23.90
2018-06-22T22:52:10.642Z,23.80
2018-06-22T22:54:38.323Z,23.80
2018-06-22T22:57:05.338Z,23.80
2018-06-22T22:59:32.165Z,23.80
2018-06-22T23:01:58.990Z,23.80
2018-06-22T23:04:25.824Z,23.80
2018-06-22T23:06:52.642Z,23.80
2018-06-22T23:09:19.455Z,23.80
2018-06-22T23:11:46.272Z,23.80
2018-06-22T23:14:13.192Z,23.80
2018-06-22T23:16:40.652Z,23.80
2018-06-22T23:19:07.940Z,23.80
2018-06-22T23:21:34.731Z,23.80
2018-06-22T23:24:01.596Z,23.80
2018-06-22T23:26:28.530Z,23.80
2018-06-22T23:28:55.376Z,23.80
2018-06-22T23:31:22.188Z,23.70
2018-06-22T23:33:49.156Z,23.70
2018-06-22T23:36:15.988Z,23.70
2018-06-22T23:38:42.818Z,23.70
2018-06-22T23:41:09.640Z,23.70
2018-06-22T23:43:36.463Z,23.70
2018-06-22T23:46:03.279Z,23.70
2018-06-22T23:48:30.095Z,23.70
2018-06-22T23:50:57.154Z,23.70
2018-06-22T23:53:23.982Z,23.70
2018-06-22T23:55:50.810Z,23.70
2018-06-22T23:58:17.636Z,23.70
